Terminal Aerodrome Forecast
Issued by NWS Charleston, WV

Current Version | Previous Version | Text Only | Print | Product List | Glossary Off
Versions: 1 2 3 4 5 6 7 8 9 10 11 12 13 14 15 16 17 18 19 20 21 22 23 24 25 26 27

000
FTUS41 KRLX 262300
TAFCRW
TAF
KCRW 262329Z 2700/2724 18004KT P6SM FEW250
     FM270300 00000KT P6SM SCT200
     FM271500 19005KT P6SM BKN110
     FM272100 18005KT P6SM BKN050=

USA.gov is the U.S. government's official web portal to all federal, state and local government web resources and services.